createdAt,value
2022-09-05T00:03:53.696Z,12.20
2022-09-05T00:11:40.787Z,13.30
2022-09-05T00:24:17.584Z,9.20
2022-09-05T00:25:44.526Z,10.60
2022-09-05T00:32:21.099Z,10.60
2022-09-05T00:38:37.213Z,11.70
2022-09-05T00:45:23.757Z,12.30
2022-09-05T00:52:02.817Z,12.00
2022-09-05T00:58:59.335Z,9.90
2022-09-05T01:05:39.890Z,11.50
2022-09-05T01:12:34.122Z,14.00
2022-09-05T01:18:52.476Z,13.20
2022-09-05T01:25:58.462Z,12.90
2022-09-05T01:32:49.552Z,12.90
2022-09-05T01:40:15.434Z,12.80
2022-09-05T01:46:38.571Z,12.50
2022-09-05T01:53:16.217Z,11.70
2022-09-05T02:00:35.798Z,12.10
2022-09-05T02:07:53.700Z,10.20
2022-09-05T02:21:15.009Z,8.40
2022-09-05T02:28:05.113Z,8.60
2022-09-05T02:34:24.503Z,7.50
2022-09-05T02:45:18.877Z,6.60
2022-09-05T02:47:28.819Z,7.40
2022-09-05T02:57:38.992Z,7.20
2022-09-05T03:01:09.471Z,8.10
2022-09-05T03:08:17.190Z,7.30
2022-09-05T03:15:22.116Z,7.50
2022-09-05T03:21:54.628Z,7.60
2022-09-05T03:28:49.360Z,7.60
2022-09-05T03:35:34.710Z,9.70
2022-09-05T03:41:40.228Z,9.00
2022-09-05T03:48:27.973Z,8.80
2022-09-05T03:57:11.773Z,10.80
2022-09-05T04:07:31.060Z,8.50
2022-09-05T04:08:48.418Z,9.00
2022-09-05T04:15:28.920Z,9.40
2022-09-05T04:22:38.084Z,10.00
2022-09-05T04:28:53.271Z,9.60
2022-09-05T04:35:36.303Z,8.10
2022-09-05T04:42:12.778Z,8.50
2022-09-05T04:48:35.932Z,7.50
2022-09-05T04:55:29.121Z,7.20
2022-09-05T05:06:04.445Z,6.50
2022-09-05T05:09:22.167Z,8.50
2022-09-05T05:18:08.808Z,6.80
2022-09-05T05:22:19.401Z,8.20
2022-09-05T05:29:19.994Z,8.40
2022-09-05T05:35:49.723Z,8.00
2022-09-05T05:42:17.490Z,7.80
2022-09-05T05:47:36.795Z,9.60
2022-09-05T05:53:42.945Z,8.40
2022-09-05T06:00:15.212Z,8.30
2022-09-05T06:06:38.476Z,7.80
2022-09-05T06:15:04.035Z,9.30
2022-09-05T06:22:06.573Z,8.90
2022-09-05T06:26:51.782Z,7.80
2022-09-05T06:33:14.709Z,8.70
2022-09-05T06:39:31.359Z,7.20
2022-09-05T06:45:29.258Z,8.00
2022-09-05T06:51:07.850Z,6.50
2022-09-05T06:57:32.573Z,6.60
2022-09-05T07:03:22.654Z,6.10
2022-09-05T07:09:04.287Z,5.30
2022-09-05T07:15:21.474Z,5.70
2022-09-05T07:21:15.885Z,4.50
2022-09-05T07:26:57.039Z,4.70
2022-09-05T07:32:28.153Z,5.00
2022-09-05T07:38:54.890Z,4.30
2022-09-05T07:45:29.491Z,3.90
2022-09-05T07:56:46.586Z,3.30
2022-09-05T08:02:26.538Z,3.00
2022-09-05T08:07:52.988Z,3.00
2022-09-05T08:13:24.328Z,2.40
2022-09-05T08:18:52.872Z,2.50
2022-09-05T08:24:13.574Z,2.50
2022-09-05T08:29:37.099Z,2.90
2022-09-05T08:35:28.382Z,2.80
2022-09-05T08:41:51.137Z,2.90
2022-09-05T08:47:45.480Z,3.00
2022-09-05T08:53:26.312Z,2.60
2022-09-05T08:59:31.813Z,2.80
2022-09-05T09:05:14.378Z,3.20
2022-09-05T09:10:33.018Z,3.00
2022-09-05T09:16:22.005Z,3.20
2022-09-05T09:21:59.087Z,2.70
2022-09-05T09:27:36.368Z,3.30
2022-09-05T09:33:04.657Z,3.80
2022-09-05T09:38:56.875Z,4.00
2022-09-05T09:45:32.072Z,4.60
2022-09-05T09:51:49.514Z,3.70
2022-09-05T09:58:03.939Z,2.80
2022-09-05T10:09:38.339Z,3.30
2022-09-05T10:10:50.464Z,3.30
2022-09-05T10:16:17.992Z,3.50
2022-09-05T10:27:53.491Z,3.30
2022-09-05T10:35:13.146Z,3.60
2022-09-05T10:39:26.860Z,3.70
2022-09-05T10:44:54.303Z,3.90
2022-09-05T10:50:47.741Z,4.00
2022-09-05T10:55:59.121Z,3.90
2022-09-05T11:02:27.454Z,4.50
2022-09-05T11:07:01.379Z,4.30
2022-09-05T11:12:12.214Z,4.30
2022-09-05T11:17:59.343Z,4.30
2022-09-05T11:23:10.339Z,3.90
2022-09-05T11:28:22.131Z,4.30
2022-09-05T11:39:53.632Z,4.70
2022-09-05T11:40:31.356Z,4.30
2022-09-05T11:46:14.186Z,3.90
2022-09-05T11:51:53.783Z,4.60
2022-09-05T11:57:33.073Z,7.20
2022-09-05T12:02:54.641Z,4.80
2022-09-05T12:08:42.012Z,4.90
2022-09-05T12:14:31.715Z,8.80
2022-09-05T12:20:06.302Z,4.30
2022-09-05T12:27:35.510Z,3.90
2022-09-05T12:31:07.112Z,3.80
2022-09-05T12:40:56.523Z,3.70
2022-09-05T12:42:14.519Z,3.60
2022-09-05T12:47:25.099Z,4.20
2022-09-05T12:52:34.001Z,4.00
2022-09-05T13:02:59.295Z,3.50
2022-09-05T13:03:40.699Z,3.70
2022-09-05T13:08:59.456Z,3.80
2022-09-05T13:14:56.209Z,3.60
2022-09-05T13:25:33.847Z,4.10
2022-09-05T13:34:04.470Z,3.30
2022-09-05T13:38:05.155Z,7.00
2022-09-05T13:43:50.103Z,3.50
2022-09-05T13:49:27.881Z,3.10
2022-09-05T13:55:12.995Z,3.30
2022-09-05T14:00:41.150Z,3.70
2022-09-05T14:06:46.174Z,3.70
2022-09-05T14:12:48.056Z,4.10
2022-09-05T14:18:20.244Z,4.10
2022-09-05T14:23:32.259Z,3.10
2022-09-05T14:28:50.409Z,3.40
2022-09-05T14:37:48.704Z,2.70
2022-09-05T14:40:29.920Z,3.20
2022-09-05T14:46:32.284Z,3.10
2022-09-05T14:51:47.072Z,3.20
2022-09-05T15:02:09.614Z,3.50
2022-09-05T15:03:02.159Z,2.90
2022-09-05T15:11:24.362Z,2.50
2022-09-05T15:14:07.455Z,3.30
2022-09-05T15:19:32.366Z,3.20
2022-09-05T15:24:42.676Z,3.30
2022-09-05T15:30:08.559Z,3.40
2022-09-05T15:35:37.086Z,3.20
2022-09-05T15:41:03.771Z,2.40
2022-09-05T15:46:07.620Z,2.90
2022-09-05T15:51:31.779Z,2.90
2022-09-05T15:56:57.516Z,3.60
2022-09-05T16:02:31.421Z,3.30
2022-09-05T16:10:40.814Z,3.40
2022-09-05T16:14:18.178Z,3.50
2022-09-05T16:23:33.322Z,2.80
2022-09-05T16:25:52.682Z,3.10
2022-09-05T16:31:05.064Z,3.00
2022-09-05T16:37:08.167Z,3.20
2022-09-05T16:43:03.543Z,2.50
2022-09-05T16:48:11.510Z,3.40
2022-09-05T16:53:58.822Z,2.70
2022-09-05T16:59:49.362Z,6.40
2022-09-05T17:05:41.783Z,3.80
2022-09-05T17:11:35.526Z,5.20
2022-09-05T17:18:22.732Z,4.10
2022-09-05T17:29:17.678Z,3.10
2022-09-05T17:31:47.411Z,3.10
2022-09-05T17:36:58.740Z,3.30
2022-09-05T17:43:11.911Z,3.30
2022-09-05T17:49:29.175Z,3.20
2022-09-05T17:55:15.741Z,3.50
2022-09-05T18:01:17.636Z,4.50
2022-09-05T18:06:58.926Z,4.10
2022-09-05T18:13:13.316Z,4.20
2022-09-05T18:25:28.177Z,3.80
2022-09-05T18:31:41.760Z,4.50
2022-09-05T18:37:16.859Z,3.60
2022-09-05T18:43:11.172Z,4.30
2022-09-05T18:50:23.705Z,4.00
2022-09-05T18:56:10.481Z,4.50
2022-09-05T19:01:14.197Z,4.80
2022-09-05T19:06:52.762Z,5.30
2022-09-05T19:13:05.159Z,5.10
2022-09-05T19:19:29.397Z,4.90
2022-09-05T19:25:29.778Z,4.70
2022-09-05T19:37:11.974Z,5.00
2022-09-05T19:37:48.829Z,5.40
2022-09-05T19:47:42.436Z,5.40
2022-09-05T19:50:31.297Z,5.90
2022-09-05T19:56:49.699Z,5.60
2022-09-05T20:02:35.110Z,4.90
2022-09-05T20:08:10.330Z,5.70
2022-09-05T20:14:12.510Z,5.40
2022-09-05T20:20:02.842Z,6.10
2022-09-05T20:25:58.879Z,5.40
2022-09-05T20:31:27.719Z,6.00
2022-09-05T20:43:14.899Z,6.10
2022-09-05T20:43:48.372Z,6.40
2022-09-05T20:54:25.002Z,4.30
2022-09-05T20:56:02.094Z,6.10
2022-09-05T21:02:24.768Z,6.70
2022-09-05T21:08:06.846Z,5.70
2022-09-05T21:14:35.557Z,5.40
2022-09-05T21:20:08.916Z,6.40
2022-09-05T21:26:00.550Z,7.10
2022-09-05T21:31:33.716Z,7.40
2022-09-05T21:37:54.808Z,5.50
2022-09-05T21:47:37.388Z,6.10
2022-09-05T21:49:51.005Z,6.60
2022-09-05T21:59:33.445Z,6.70
2022-09-05T22:01:16.200Z,6.10
2022-09-05T22:06:59.074Z,5.90
2022-09-05T22:12:53.422Z,4.60
2022-09-05T22:18:18.510Z,5.80
2022-09-05T22:23:39.872Z,5.30
2022-09-05T22:29:51.777Z,5.40
2022-09-05T22:35:28.667Z,5.30
2022-09-05T22:40:45.732Z,4.80
2022-09-05T22:47:12.100Z,4.70
2022-09-05T22:53:13.026Z,4.60
2022-09-05T22:59:30.842Z,4.80
2022-09-05T23:05:44.975Z,4.90
2022-09-05T23:11:16.664Z,4.10
2022-09-05T23:17:31.260Z,4.40
2022-09-05T23:23:44.304Z,4.50
2022-09-05T23:29:35.509Z,3.60
2022-09-05T23:35:06.664Z,3.40
2022-09-05T23:40:46.873Z,4.60
2022-09-05T23:47:03.463Z,3.20
2022-09-05T23:53:43.523Z,2.70
2022-09-05T23:59:47.230Z,2.40
